Time;durP1;ratioP1;P1;durP2;ratioP2;P2;SDS_P1;SDS_P2;PMS_P1;PMS_P2;Temp;Humidity;BMP_temperature;BMP_pressure;BME280_temperature;BME280_humidity;BME280_pressure;Samples;Min_cycle;Max_cycle;Signal;HPM_P1;HPM_P2
2023/01/06 00:01:30;;;;;;;61.72;37.75;;;;;;;;;;6276705;22;19996;-67
2023/01/06 00:03:58;;;;;;;62.53;39.83;;;;;;;;;;6276354;22;20033;-68
2023/01/06 00:06:26;;;;;;;61.88;38.22;;;;;;;;;;6276745;22;19996;-67
2023/01/06 00:08:56;;;;;;;70.18;40.63;;;;;;;;;;6276431;22;20004;-68
2023/01/06 00:11:22;;;;;;;63.92;39.20;;;;;;;;;;6276636;22;20075;-67
2023/01/06 00:13:48;;;;;;;67.55;40.17;;;;;;;;;;6276775;22;20026;-68
2023/01/06 00:16:15;;;;;;;63.28;40.60;;;;;;;;;;6276542;22;20007;-67
2023/01/06 00:18:42;;;;;;;70.72;42.03;;;;;;;;;;6276195;22;20330;-68
2023/01/06 00:21:08;;;;;;;60.33;40.58;;;;;;;;;;6276192;22;20027;-68
2023/01/06 00:23:35;;;;;;;68.20;41.92;;;;;;;;;;6276482;22;20035;-68
2023/01/06 00:26:01;;;;;;;63.38;40.20;;;;;;;;;;6276058;22;19996;-67
2023/01/06 00:28:28;;;;;;;62.17;40.38;;;;;;;;;;6276596;22;20069;-67
2023/01/06 00:30:54;;;;;;;59.42;39.30;;;;;;;;;;6276294;22;20126;-68
2023/01/06 00:33:20;;;;;;;67.88;39.78;;;;;;;;;;6276599;22;20006;-68
2023/01/06 00:35:46;;;;;;;60.78;40.25;;;;;;;;;;6276322;22;20142;-68
2023/01/06 00:38:12;;;;;;;71.07;43.05;;;;;;;;;;6276179;22;20453;-68
2023/01/06 00:40:38;;;;;;;69.82;42.45;;;;;;;;;;6276411;22;20555;-68
2023/01/06 00:43:04;;;;;;;58.00;37.95;;;;;;;;;;6276110;22;20441;-67
2023/01/06 00:45:30;;;;;;;62.67;38.78;;;;;;;;;;6275762;22;19999;-67
2023/01/06 00:47:56;;;;;;;62.33;39.85;;;;;;;;;;6276248;22;20081;-68
2023/01/06 00:50:22;;;;;;;61.38;39.25;;;;;;;;;;6275908;22;20003;-67
2023/01/06 00:52:48;;;;;;;59.17;38.08;;;;;;;;;;6276394;22;20004;-67
2023/01/06 00:55:14;;;;;;;60.92;38.72;;;;;;;;;;6276168;22;19996;-67
2023/01/06 00:57:40;;;;;;;59.60;37.92;;;;;;;;;;6276530;22;20003;-69
2023/01/06 01:00:08;;;;;;;57.28;37.33;;;;;;;;;;6276168;22;19995;-67
2023/01/06 01:02:34;;;;;;;62.38;37.90;;;;;;;;;;6276301;22;20011;-67
2023/01/06 01:05:00;;;;;;;55.15;35.25;;;;;;;;;;6276050;22;20426;-68
2023/01/06 01:07:26;;;;;;;59.80;36.72;;;;;;;;;;6275958;22;20004;-68
2023/01/06 01:09:52;;;;;;;56.83;37.47;;;;;;;;;;6275839;22;20057;-68
2023/01/06 01:12:18;;;;;;;53.90;35.85;;;;;;;;;;6275695;22;19999;-67
2023/01/06 01:14:48;;;;;;;58.42;36.63;;;;;;;;;;6276376;22;20003;-67
2023/01/06 01:17:19;;;;;;;59.33;38.05;;;;;;;;;;6278145;22;20428;-67
2023/01/06 01:19:46;;;;;;;62.38;36.30;;;;;;;;;;6277856;22;20004;-68
2023/01/06 01:22:12;;;;;;;54.13;37.40;;;;;;;;;;6277954;22;20000;-68
2023/01/06 01:24:38;;;;;;;59.15;37.47;;;;;;;;;;6278052;22;20079;-67
2023/01/06 01:27:04;;;;;;;62.70;38.13;;;;;;;;;;6277910;22;19995;-68
2023/01/06 01:29:30;;;;;;;55.78;36.28;;;;;;;;;;6277898;22;20342;-68
2023/01/06 01:31:56;;;;;;;57.20;34.30;;;;;;;;;;6278118;22;20023;-67
2023/01/06 01:34:23;;;;;;;56.40;36.67;;;;;;;;;;6278234;22;20483;-67
2023/01/06 01:36:50;;;;;;;53.20;35.65;;;;;;;;;;6278049;22;19999;-67
2023/01/06 01:39:17;;;;;;;50.55;34.22;;;;;;;;;;6277622;22;20007;-67
2023/01/06 01:41:43;;;;;;;57.63;36.20;;;;;;;;;;6277980;22;20007;-67
2023/01/06 01:44:28;;;;;;;55.28;36.40;;;;;;;;;;6277905;22;20012;-67
2023/01/06 01:46:54;;;;;;;53.67;34.95;;;;;;;;;;6278192;22;19999;-68
2023/01/06 01:49:21;;;;;;;54.60;35.88;;;;;;;;;;6277580;22;19999;-68
2023/01/06 01:51:48;;;;;;;54.95;36.72;;;;;;;;;;6277568;22;20494;-67
2023/01/06 01:54:17;;;;;;;54.47;36.08;;;;;;;;;;6278070;22;20018;-67
2023/01/06 01:56:45;;;;;;;56.85;36.83;;;;;;;;;;6277893;22;20430;-67
2023/01/06 01:59:16;;;;;;;57.03;37.60;;;;;;;;;;6274386;22;20856;-67
2023/01/06 02:01:42;;;;;;;60.08;37.15;;;;;;;;;;6273786;22;20011;-68
2023/01/06 02:04:09;;;;;;;57.03;38.17;;;;;;;;;;6274983;22;20381;-68
2023/01/06 02:06:35;;;;;;;58.50;36.47;;;;;;;;;;6277491;22;20000;-68
2023/01/06 02:09:07;;;;;;;57.88;37.13;;;;;;;;;;6277664;22;20003;-68
2023/01/06 02:11:35;;;;;;;54.08;35.72;;;;;;;;;;6277433;22;20073;-67
2023/01/06 02:14:06;;;;;;;53.90;36.15;;;;;;;;;;6277319;22;20066;-67
2023/01/06 02:16:39;;;;;;;57.33;37.60;;;;;;;;;;6277721;22;20007;-68
2023/01/06 02:19:17;;;;;;;51.53;35.55;;;;;;;;;;6277459;22;20054;-67
2023/01/06 02:21:46;;;;;;;53.30;35.60;;;;;;;;;;6277286;22;20375;-68
2023/01/06 02:24:32;;;;;;;54.63;35.55;;;;;;;;;;6250238;22;20403;-68
2023/01/06 02:27:17;;;;;;;51.05;31.40;;;;;;;;;;6277027;22;20004;-68
2023/01/06 02:30:01;;;;;;;50.40;32.88;;;;;;;;;;6276702;22;20084;-68
2023/01/06 02:32:40;;;;;;;50.92;32.72;;;;;;;;;;6277337;22;20414;-67
2023/01/06 02:35:12;;;;;;;49.15;29.65;;;;;;;;;;6277184;22;20000;-68
2023/01/06 02:37:47;;;;;;;53.17;29.40;;;;;;;;;;6277136;22;20451;-68
2023/01/06 02:40:19;;;;;;;45.45;29.70;;;;;;;;;;6277457;22;20411;-68
2023/01/06 02:43:05;;;;;;;49.25;29.50;;;;;;;;;;6276884;22;20012;-68
2023/01/06 02:45:47;;;;;;;42.38;27.58;;;;;;;;;;6277447;22;20026;-67
2023/01/06 02:48:23;;;;;;;42.70;27.40;;;;;;;;;;6277232;22;20401;-68
2023/01/06 02:50:52;;;;;;;41.53;26.70;;;;;;;;;;6277492;22;20006;-68
2023/01/06 02:53:20;;;;;;;44.50;27.80;;;;;;;;;;6277329;22;20006;-68
2023/01/06 02:55:48;;;;;;;44.92;27.90;;;;;;;;;;6277119;22;20004;-67
2023/01/06 02:58:29;;;;;;;43.42;27.95;;;;;;;;;;6277091;22;20011;-68
2023/01/06 03:01:07;;;;;;;40.53;27.58;;;;;;;;;;6277102;22;20011;-68
2023/01/06 03:03:35;;;;;;;44.97;29.05;;;;;;;;;;6277243;22;20494;-68
2023/01/06 03:06:07;;;;;;;45.92;29.85;;;;;;;;;;6277195;22;20003;-68
2023/01/06 03:08:33;;;;;;;47.40;30.15;;;;;;;;;;6277628;22;20062;-67
2023/01/06 03:11:01;;;;;;;47.30;29.85;;;;;;;;;;6277024;22;20049;-67
2023/01/06 03:13:27;;;;;;;43.90;28.40;;;;;;;;;;6276811;22;20049;-68
2023/01/06 03:15:53;;;;;;;43.95;30.15;;;;;;;;;;6276704;22;20327;-67
2023/01/06 03:18:19;;;;;;;55.05;32.35;;;;;;;;;;6276989;22;20004;-67
2023/01/06 03:20:47;;;;;;;54.55;32.70;;;;;;;;;;6277175;22;20026;-68
2023/01/06 03:23:14;;;;;;;45.33;30.67;;;;;;;;;;6249548;22;20334;-67
2023/01/06 03:25:40;;;;;;;50.00;32.58;;;;;;;;;;6277448;22;20050;-67
2023/01/06 03:28:06;;;;;;;52.30;32.22;;;;;;;;;;6276786;22;20062;-67
2023/01/06 03:30:55;;;;;;;48.28;31.38;;;;;;;;;;6276896;22;19995;-68
2023/01/06 03:33:35;;;;;;;49.63;31.27;;;;;;;;;;6264680;22;20004;-68
2023/01/06 03:36:13;;;;;;;49.42;31.70;;;;;;;;;;6276778;22;20015;-68
2023/01/06 03:38:39;;;;;;;47.53;30.05;;;;;;;;;;6276310;22;20003;-67
2023/01/06 03:44:45;;;;;;;46.80;29.70;;;;;;;;;;6183197;23;20023;-67
2023/01/06 03:47:19;;;;;;;43.08;28.73;;;;;;;;;;6182949;23;20005;-69
2023/01/06 03:49:52;;;;;;;42.08;26.77;;;;;;;;;;6255592;22;20026;-67
2023/01/06 03:52:21;;;;;;;44.20;29.08;;;;;;;;;;6276383;22;20012;-68
2023/01/06 03:54:52;;;;;;;46.67;29.98;;;;;;;;;;6276724;22;19999;-68
2023/01/06 03:57:21;;;;;;;51.97;32.40;;;;;;;;;;6276666;22;20027;-68
2023/01/06 03:59:53;;;;;;;51.72;31.58;;;;;;;;;;6276846;22;20222;-67
2023/01/06 04:02:20;;;;;;;48.40;32.22;;;;;;;;;;6276797;22;20018;-68
2023/01/06 04:05:05;;;;;;;48.40;32.28;;;;;;;;;;6276454;22;19999;-67
2023/01/06 04:07:31;;;;;;;46.42;32.75;;;;;;;;;;6276583;22;19999;-67
2023/01/06 04:09:57;;;;;;;52.28;32.58;;;;;;;;;;6276541;22;20453;-67
2023/01/06 04:12:38;;;;;;;48.05;31.63;;;;;;;;;;6276263;22;19996;-68
2023/01/06 04:15:10;;;;;;;46.93;31.70;;;;;;;;;;6276790;22;20007;-68
2023/01/06 04:17:37;;;;;;;46.75;29.83;;;;;;;;;;6276752;22;20008;-67
2023/01/06 04:20:04;;;;;;;47.70;31.17;;;;;;;;;;6276320;22;20081;-67
2023/01/06 04:22:30;;;;;;;48.72;31.23;;;;;;;;;;6276546;22;20018;-68
2023/01/06 04:24:57;;;;;;;45.65;29.48;;;;;;;;;;6276443;22;20011;-68
2023/01/06 04:27:23;;;;;;;45.25;30.08;;;;;;;;;;6276029;22;20003;-68
2023/01/06 04:29:49;;;;;;;42.65;29.95;;;;;;;;;;6276660;22;20007;-68
2023/01/06 04:32:15;;;;;;;39.33;26.50;;;;;;;;;;6276243;22;20338;-66
2023/01/06 04:34:41;;;;;;;39.40;25.40;;;;;;;;;;6276322;22;20044;-67
2023/01/06 04:37:07;;;;;;;36.75;24.60;;;;;;;;;;6276701;22;20004;-68
2023/01/06 04:39:33;;;;;;;38.17;25.23;;;;;;;;;;6275895;22;20374;-69
2023/01/06 04:41:59;;;;;;;38.30;25.83;;;;;;;;;;6276172;22;20430;-68
2023/01/06 04:44:25;;;;;;;40.67;27.38;;;;;;;;;;6276285;22;20039;-68
2023/01/06 04:46:51;;;;;;;42.58;27.75;;;;;;;;;;6276403;22;20091;-68
2023/01/06 04:49:17;;;;;;;37.70;25.48;;;;;;;;;;6276168;22;20007;-67
2023/01/06 04:51:43;;;;;;;43.90;27.80;;;;;;;;;;6275957;22;20083;-68
2023/01/06 04:54:09;;;;;;;41.60;28.30;;;;;;;;;;6276199;22;20119;-68
2023/01/06 04:56:35;;;;;;;43.72;27.95;;;;;;;;;;6275933;22;19999;-68
2023/01/06 04:59:01;;;;;;;43.60;28.17;;;;;;;;;;6276154;22;20057;-67
2023/01/06 05:01:27;;;;;;;40.25;26.25;;;;;;;;;;6275905;22;19995;-67
2023/01/06 05:03:53;;;;;;;37.88;25.40;;;;;;;;;;6276023;22;20011;-67
2023/01/06 05:06:19;;;;;;;29.13;19.13;;;;;;;;;;6276395;22;20369;-68
2023/01/06 05:08:46;;;;;;;30.75;18.98;;;;;;;;;;6275927;22;20323;-67
2023/01/06 05:11:16;;;;;;;37.30;21.90;;;;;;;;;;6275392;22;20018;-67
2023/01/06 05:13:43;;;;;;;33.55;21.65;;;;;;;;;;6276017;22;20080;-68
2023/01/06 05:16:10;;;;;;;32.58;20.58;;;;;;;;;;6275920;22;20118;-68
2023/01/06 05:18:37;;;;;;;35.60;21.25;;;;;;;;;;6276074;22;20034;-68
2023/01/06 05:21:03;;;;;;;33.30;20.88;;;;;;;;;;6275905;22;20311;-68
2023/01/06 05:23:29;;;;;;;32.90;20.70;;;;;;;;;;6275801;22;20016;-68
2023/01/06 05:25:55;;;;;;;29.00;19.83;;;;;;;;;;6275905;22;20410;-68
2023/01/06 05:28:21;;;;;;;24.67;15.68;;;;;;;;;;6275858;22;20011;-68
2023/01/06 05:30:47;;;;;;;22.02;14.27;;;;;;;;;;6275722;22;20007;-68
2023/01/06 05:33:13;;;;;;;20.65;13.80;;;;;;;;;;6275896;22;20011;-68
2023/01/06 05:35:40;;;;;;;23.25;14.00;;;;;;;;;;6275760;22;20023;-68
2023/01/06 05:38:06;;;;;;;18.58;12.48;;;;;;;;;;6275953;22;20004;-68
2023/01/06 05:40:33;;;;;;;29.75;14.02;;;;;;;;;;6276014;22;20083;-68
2023/01/06 05:42:59;;;;;;;20.73;13.10;;;;;;;;;;6275970;22;20376;-68
2023/01/06 05:45:25;;;;;;;20.42;12.43;;;;;;;;;;6276140;22;20473;-68
2023/01/06 05:47:51;;;;;;;19.50;13.18;;;;;;;;;;6276262;22;20334;-68
2023/01/06 05:50:17;;;;;;;20.40;13.20;;;;;;;;;;6275579;22;20083;-67
2023/01/06 05:52:44;;;;;;;19.80;12.73;;;;;;;;;;6276040;22;20362;-67
2023/01/06 05:55:10;;;;;;;18.93;13.60;;;;;;;;;;6276352;22;20381;-67
2023/01/06 05:57:36;;;;;;;20.98;13.02;;;;;;;;;;6275756;22;20056;-68
2023/01/06 06:00:05;;;;;;;18.75;12.50;;;;;;;;;;6275680;22;20193;-67
2023/01/06 06:02:31;;;;;;;20.65;12.60;;;;;;;;;;6278074;22;20008;-68
2023/01/06 06:04:57;;;;;;;20.48;12.48;;;;;;;;;;6278070;22;20030;-68
2023/01/06 06:07:23;;;;;;;21.65;12.73;;;;;;;;;;6278046;22;20003;-67
2023/01/06 06:09:49;;;;;;;22.13;12.07;;;;;;;;;;6277620;22;20079;-67
2023/01/06 06:12:15;;;;;;;19.55;12.13;;;;;;;;;;6277838;22;20430;-68
2023/01/06 06:14:41;;;;;;;22.42;12.20;;;;;;;;;;6278259;22;20053;-68
2023/01/06 06:17:08;;;;;;;17.35;11.95;;;;;;;;;;6277687;22;19995;-68
2023/01/06 06:19:34;;;;;;;23.85;12.30;;;;;;;;;;6277643;22;20000;-67
2023/01/06 06:22:00;;;;;;;17.02;12.02;;;;;;;;;;6277418;22;20380;-68
2023/01/06 06:24:26;;;;;;;19.63;11.25;;;;;;;;;;6277671;22;20008;-68
2023/01/06 06:26:52;;;;;;;18.70;12.30;;;;;;;;;;6277708;22;20430;-68
2023/01/06 06:29:18;;;;;;;22.30;13.13;;;;;;;;;;6277368;22;20019;-67
2023/01/06 06:31:44;;;;;;;20.38;12.98;;;;;;;;;;6277796;22;20002;-68
2023/01/06 06:34:10;;;;;;;22.00;13.80;;;;;;;;;;6277431;22;20007;-67
2023/01/06 06:36:36;;;;;;;20.60;12.95;;;;;;;;;;6277344;22;20042;-67
2023/01/06 06:39:02;;;;;;;21.58;13.30;;;;;;;;;;6277243;22;20004;-67
2023/01/06 06:41:28;;;;;;;20.93;13.43;;;;;;;;;;6277409;22;20034;-67
2023/01/06 06:43:55;;;;;;;21.08;12.43;;;;;;;;;;6277370;22;20019;-67
2023/01/06 06:46:21;;;;;;;20.13;11.27;;;;;;;;;;6277621;22;20052;-68
2023/01/06 06:48:50;;;;;;;18.92;11.88;;;;;;;;;;6277238;22;20030;-68
2023/01/06 06:51:18;;;;;;;17.58;11.90;;;;;;;;;;6277161;22;19996;-67
2023/01/06 06:53:44;;;;;;;21.40;11.57;;;;;;;;;;6277024;22;20004;-67
2023/01/06 06:56:11;;;;;;;18.70;11.13;;;;;;;;;;6277308;22;20032;-67
2023/01/06 06:58:37;;;;;;;20.05;11.35;;;;;;;;;;6277394;22;20000;-67
2023/01/06 07:01:04;;;;;;;16.73;10.48;;;;;;;;;;6276854;22;20030;-67
2023/01/06 07:03:30;;;;;;;17.38;10.68;;;;;;;;;;6277330;22;20008;-67
2023/01/06 07:05:58;;;;;;;15.55;9.75;;;;;;;;;;6277386;22;19999;-68
2023/01/06 07:08:24;;;;;;;15.77;10.03;;;;;;;;;;6277587;22;20030;-67
2023/01/06 07:10:50;;;;;;;19.27;10.32;;;;;;;;;;6277365;22;20085;-68
2023/01/06 07:13:16;;;;;;;19.98;9.88;;;;;;;;;;6276855;22;20002;-68
2023/01/06 07:15:43;;;;;;;17.20;8.90;;;;;;;;;;6277061;22;20027;-67
2023/01/06 07:18:09;;;;;;;18.33;9.03;;;;;;;;;;6276109;22;20034;-68
2023/01/06 07:20:36;;;;;;;12.63;8.68;;;;;;;;;;6277100;22;20000;-67
2023/01/06 07:23:02;;;;;;;15.90;8.48;;;;;;;;;;6276889;22;20112;-68
2023/01/06 07:25:28;;;;;;;14.70;8.77;;;;;;;;;;6250285;22;20331;-67
2023/01/06 07:27:55;;;;;;;21.27;11.27;;;;;;;;;;6276200;22;20085;-67
2023/01/06 07:30:21;;;;;;;19.67;11.38;;;;;;;;;;6276534;22;20038;-67
2023/01/06 07:32:48;;;;;;;19.23;12.30;;;;;;;;;;6249755;22;20330;-67
2023/01/06 07:35:14;;;;;;;18.33;12.98;;;;;;;;;;6276775;22;20003;-67
2023/01/06 07:37:40;;;;;;;18.83;12.60;;;;;;;;;;6277259;22;20004;-67
2023/01/06 07:40:06;;;;;;;17.63;11.02;;;;;;;;;;6276585;22;19995;-68
2023/01/06 07:42:32;;;;;;;19.55;10.43;;;;;;;;;;6276907;22;20012;-68
2023/01/06 07:44:58;;;;;;;17.27;10.70;;;;;;;;;;6276874;22;20011;-67
2023/01/06 07:47:24;;;;;;;14.02;8.80;;;;;;;;;;6276722;22;20006;-68
2023/01/06 07:49:52;;;;;;;20.00;10.07;;;;;;;;;;6277216;22;20015;-67
2023/01/06 07:52:18;;;;;;;18.75;8.65;;;;;;;;;;6276502;22;20049;-67
2023/01/06 07:54:44;;;;;;;18.23;10.07;;;;;;;;;;6276876;22;20030;-67
2023/01/06 07:57:10;;;;;;;16.98;9.48;;;;;;;;;;6276477;22;20006;-67
2023/01/06 07:59:36;;;;;;;15.27;10.10;;;;;;;;;;6276531;22;20011;-69
2023/01/06 08:02:02;;;;;;;17.17;9.00;;;;;;;;;;6276405;22;19999;-67
2023/01/06 08:04:28;;;;;;;13.95;9.23;;;;;;;;;;6276660;22;20422;-68
2023/01/06 08:06:54;;;;;;;14.88;9.38;;;;;;;;;;6276595;22;20367;-67
2023/01/06 08:09:21;;;;;;;16.92;10.07;;;;;;;;;;6276432;22;20418;-68
2023/01/06 08:11:47;;;;;;;12.85;8.90;;;;;;;;;;6276226;22;20469;-68
2023/01/06 08:14:13;;;;;;;16.55;10.27;;;;;;;;;;6276464;22;20031;-67
2023/01/06 08:16:39;;;;;;;15.93;9.88;;;;;;;;;;6276502;22;20423;-68
2023/01/06 08:19:05;;;;;;;16.27;10.52;;;;;;;;;;6276734;22;20010;-67
2023/01/06 08:21:31;;;;;;;13.98;9.50;;;;;;;;;;6276847;22;20031;-67
2023/01/06 08:23:57;;;;;;;13.88;9.38;;;;;;;;;;6275929;22;20316;-68
2023/01/06 08:26:23;;;;;;;16.73;9.68;;;;;;;;;;6276401;22;20326;-68
2023/01/06 08:28:50;;;;;;;15.98;9.18;;;;;;;;;;6275822;22;20019;-68
2023/01/06 08:31:18;;;;;;;17.17;9.90;;;;;;;;;;6276224;22;20000;-67
2023/01/06 08:33:44;;;;;;;19.33;11.43;;;;;;;;;;6276499;22;19999;-67
2023/01/06 08:36:15;;;;;;;24.60;14.38;;;;;;;;;;6276458;22;20498;-67
2023/01/06 08:38:41;;;;;;;24.05;15.57;;;;;;;;;;6276721;22;20326;-67
2023/01/06 08:41:07;;;;;;;22.15;15.68;;;;;;;;;;6276382;22;20003;-67
2023/01/06 08:43:33;;;;;;;25.10;16.27;;;;;;;;;;6276408;22;20023;-67
2023/01/06 08:46:00;;;;;;;21.02;14.27;;;;;;;;;;6276302;22;20003;-67
2023/01/06 08:48:27;;;;;;;24.55;16.13;;;;;;;;;;6276110;22;20003;-67
2023/01/06 08:50:53;;;;;;;21.27;15.20;;;;;;;;;;6276435;22;20000;-67
2023/01/06 08:53:19;;;;;;;20.02;14.43;;;;;;;;;;6276685;22;20338;-68
2023/01/06 08:55:45;;;;;;;20.73;13.98;;;;;;;;;;6276681;22;19996;-68
2023/01/06 08:58:11;;;;;;;19.08;14.07;;;;;;;;;;6277106;22;20009;-68
2023/01/06 09:00:39;;;;;;;21.30;14.57;;;;;;;;;;6277254;22;19996;-67
2023/01/06 09:03:05;;;;;;;21.33;14.38;;;;;;;;;;6275646;22;20011;-68
2023/01/06 09:05:31;;;;;;;20.40;14.80;;;;;;;;;;6276020;22;20373;-67
2023/01/06 09:07:57;;;;;;;22.08;15.60;;;;;;;;;;6275433;22;20026;-68
2023/01/06 09:10:23;;;;;;;21.88;14.82;;;;;;;;;;6274990;22;20010;-67
2023/01/06 09:12:50;;;;;;;26.05;13.63;;;;;;;;;;6275516;22;20079;-67
2023/01/06 09:15:16;;;;;;;18.60;14.18;;;;;;;;;;6275460;22;20438;-67
2023/01/06 09:17:42;;;;;;;23.23;15.05;;;;;;;;;;6275507;22;20087;-67
2023/01/06 09:20:08;;;;;;;22.85;14.32;;;;;;;;;;6275247;22;20323;-67
2023/01/06 09:22:34;;;;;;;21.95;14.95;;;;;;;;;;6275585;22;20467;-67
2023/01/06 09:25:00;;;;;;;23.40;14.82;;;;;;;;;;6275329;22;20329;-68
2023/01/06 09:27:26;;;;;;;23.45;15.73;;;;;;;;;;6275654;22;20004;-68
2023/01/06 09:29:52;;;;;;;22.63;14.85;;;;;;;;;;6275514;22;20326;-68
2023/01/06 09:32:18;;;;;;;23.38;15.32;;;;;;;;;;6275469;22;20006;-67
2023/01/06 09:34:44;;;;;;;21.65;15.70;;;;;;;;;;6275869;22;20023;-68
2023/01/06 09:37:10;;;;;;;19.33;14.27;;;;;;;;;;6277571;22;19996;-68
2023/01/06 09:39:37;;;;;;;18.13;13.95;;;;;;;;;;6278036;22;20067;-67
2023/01/06 09:42:08;;;;;;;16.67;12.55;;;;;;;;;;6277284;22;20426;-68
2023/01/06 09:44:44;;;;;;;20.35;13.35;;;;;;;;;;6277594;22;20501;-68
2023/01/06 09:47:13;;;;;;;18.08;12.20;;;;;;;;;;6277652;22;20074;-68
2023/01/06 09:49:42;;;;;;;23.85;19.15;;;;;;;;;;6277828;22;20034;-68
2023/01/06 09:52:11;;;;;;;14.98;11.18;;;;;;;;;;6250555;22;20368;-68
2023/01/06 09:54:40;;;;;;;16.25;10.63;;;;;;;;;;6277998;22;20014;-68
2023/01/06 09:57:10;;;;;;;14.23;10.63;;;;;;;;;;6277759;22;20008;-68
2023/01/06 09:59:59;;;;;;;16.77;12.27;;;;;;;;;;6277720;22;19996;-68
2023/01/06 10:02:28;;;;;;;13.65;10.68;;;;;;;;;;6234124;22;20438;-68
2023/01/06 10:04:54;;;;;;;15.52;10.73;;;;;;;;;;6277947;22;20031;-68
2023/01/06 10:07:29;;;;;;;16.35;10.60;;;;;;;;;;6277775;22;20453;-68
2023/01/06 10:10:07;;;;;;;12.20;9.15;;;;;;;;;;6277936;22;20004;-68
2023/01/06 10:12:42;;;;;;;13.55;9.25;;;;;;;;;;6277544;22;20045;-67
2023/01/06 10:15:28;;;;;;;13.30;8.77;;;;;;;;;;6277588;22;20427;-68
2023/01/06 10:18:33;;;;;;;11.98;7.85;;;;;;;;;;6277417;22;20023;-68
2023/01/06 10:20:59;;;;;;;12.50;7.00;;;;;;;;;;6154134;23;20009;-68
2023/01/06 10:23:34;;;;;;;13.32;7.25;;;;;;;;;;6154368;23;20013;-68
2023/01/06 10:26:10;;;;;;;11.32;6.85;;;;;;;;;;6220171;22;19999;-67
2023/01/06 10:28:40;;;;;;;10.82;7.90;;;;;;;;;;6277398;22;20015;-68
2023/01/06 10:31:10;;;;;;;12.52;6.68;;;;;;;;;;6277154;22;20022;-68
2023/01/06 10:33:40;;;;;;;11.57;8.25;;;;;;;;;;6277401;22;20000;-68
2023/01/06 10:36:11;;;;;;;14.23;7.28;;;;;;;;;;6277618;22;20000;-68
2023/01/06 10:38:40;;;;;;;12.20;6.90;;;;;;;;;;6277547;22;20003;-68
2023/01/06 10:41:29;;;;;;;11.68;7.28;;;;;;;;;;6277424;22;20030;-68
2023/01/06 10:43:56;;;;;;;9.85;6.90;;;;;;;;;;6220514;22;20342;-69
2023/01/06 10:46:22;;;;;;;10.70;7.13;;;;;;;;;;6277560;22;19995;-68
2023/01/06 10:48:48;;;;;;;11.13;7.43;;;;;;;;;;6277222;22;20326;-69
2023/01/06 10:51:33;;;;;;;11.68;7.78;;;;;;;;;;6277371;22;20004;-68
2023/01/06 10:54:01;;;;;;;14.05;8.45;;;;;;;;;;6276954;22;20004;-67
2023/01/06 10:56:29;;;;;;;12.32;7.97;;;;;;;;;;6275885;22;19996;-68
2023/01/06 10:59:02;;;;;;;9.50;7.03;;;;;;;;;;6275830;22;19995;-68
2023/01/06 11:01:28;;;;;;;11.55;7.70;;;;;;;;;;6277521;22;20011;-67
2023/01/06 11:04:06;;;;;;;12.20;7.18;;;;;;;;;;6277385;22;20008;-68
2023/01/06 11:06:33;;;;;;;11.00;7.13;;;;;;;;;;6276954;22;20560;-68
2023/01/06 11:09:06;;;;;;;11.57;7.05;;;;;;;;;;6276735;22;20000;-67
2023/01/06 11:11:32;;;;;;;9.65;7.63;;;;;;;;;;6277159;22;20075;-68
2023/01/06 11:14:03;;;;;;;9.95;6.93;;;;;;;;;;6276748;22;20388;-67
2023/01/06 11:16:33;;;;;;;9.88;7.30;;;;;;;;;;6277139;22;20331;-68
2023/01/06 11:19:02;;;;;;;11.88;7.35;;;;;;;;;;6277393;22;20457;-68
2023/01/06 11:21:47;;;;;;;12.63;7.22;;;;;;;;;;6277260;22;20027;-67
2023/01/06 11:24:23;;;;;;;12.55;7.50;;;;;;;;;;6277170;22;20087;-67
2023/01/06 11:26:52;;;;;;;11.10;6.18;;;;;;;;;;6276922;22;19996;-67
2023/01/06 11:29:23;;;;;;;9.98;7.40;;;;;;;;;;6276692;22;20095;-68
2023/01/06 11:31:50;;;;;;;13.25;7.68;;;;;;;;;;6277185;22;19995;-67
2023/01/06 11:34:20;;;;;;;11.35;7.07;;;;;;;;;;6277025;22;20031;-68
2023/01/06 11:36:46;;;;;;;13.68;7.55;;;;;;;;;;6276935;22;20007;-68
2023/01/06 11:39:15;;;;;;;13.77;7.50;;;;;;;;;;6276920;22;20357;-68
2023/01/06 11:41:44;;;;;;;10.32;7.40;;;;;;;;;;6277081;22;20418;-68
2023/01/06 11:44:18;;;;;;;11.38;8.13;;;;;;;;;;6277316;22;20307;-68
2023/01/06 11:46:48;;;;;;;10.93;8.02;;;;;;;;;;6277124;22;20004;-68
2023/01/06 11:49:17;;;;;;;11.43;7.70;;;;;;;;;;6276618;22;20000;-67
2023/01/06 11:51:43;;;;;;;11.18;7.70;;;;;;;;;;6276711;22;20004;-68
2023/01/06 11:54:31;;;;;;;14.45;8.75;;;;;;;;;;6277198;22;20000;-68
2023/01/06 11:57:01;;;;;;;13.15;8.18;;;;;;;;;;6276518;22;20430;-68
2023/01/06 11:59:31;;;;;;;13.13;8.18;;;;;;;;;;6276490;22;20373;-68
2023/01/06 12:01:59;;;;;;;15.23;9.10;;;;;;;;;;6276899;22;19999;-68
2023/01/06 12:04:35;;;;;;;10.60;8.00;;;;;;;;;;6276406;22;20331;-68
2023/01/06 12:07:25;;;;;;;11.70;8.00;;;;;;;;;;6276437;22;20000;-67
2023/01/06 12:09:51;;;;;;;13.63;8.15;;;;;;;;;;6261340;22;20000;-67
2023/01/06 12:12:20;;;;;;;14.35;8.73;;;;;;;;;;6276547;22;20041;-68
2023/01/06 12:14:46;;;;;;;11.95;8.45;;;;;;;;;;6272439;22;20342;-68
2023/01/06 12:17:31;;;;;;;11.95;8.10;;;;;;;;;;6273505;22;20003;-68
2023/01/06 12:19:59;;;;;;;14.70;8.45;;;;;;;;;;6276445;22;20457;-68
2023/01/06 12:22:44;;;;;;;13.10;7.97;;;;;;;;;;6276067;22;20003;-68
2023/01/06 12:25:14;;;;;;;13.15;8.70;;;;;;;;;;6276708;22;20027;-68
2023/01/06 12:27:46;;;;;;;13.57;8.52;;;;;;;;;;6276609;22;20023;-68
2023/01/06 12:30:31;;;;;;;15.52;8.82;;;;;;;;;;6276406;22;20039;-68
2023/01/06 12:32:59;;;;;;;13.23;8.30;;;;;;;;;;6276012;22;20007;-68
2023/01/06 12:35:28;;;;;;;13.95;8.60;;;;;;;;;;6276668;22;20004;-68
2023/01/06 12:38:00;;;;;;;15.32;8.77;;;;;;;;;;6274765;22;20438;-68
2023/01/06 12:40:45;;;;;;;13.02;8.25;;;;;;;;;;6272970;22;20122;-68
2023/01/06 12:43:18;;;;;;;12.52;8.23;;;;;;;;;;6272842;22;20072;-68
2023/01/06 12:45:50;;;;;;;15.63;8.38;;;;;;;;;;6275156;22;20004;-68
2023/01/06 12:48:19;;;;;;;11.95;8.38;;;;;;;;;;6275907;22;20432;-68
2023/01/06 12:50:47;;;;;;;16.77;8.13;;;;;;;;;;6276369;22;19999;-68
2023/01/06 12:53:25;;;;;;;12.15;8.18;;;;;;;;;;6275978;22;19999;-67
2023/01/06 12:55:51;;;;;;;14.68;8.15;;;;;;;;;;6276004;22;20363;-68
2023/01/06 12:58:17;;;;;;;11.02;7.97;;;;;;;;;;6275787;22;20027;-68
2023/01/06 13:00:48;;;;;;;12.63;8.05;;;;;;;;;;6276100;22;20042;-68
2023/01/06 13:03:20;;;;;;;11.07;7.90;;;;;;;;;;6276190;22;20011;-68
2023/01/06 13:05:54;;;;;;;10.85;7.57;;;;;;;;;;6276193;22;19996;-67
2023/01/06 13:08:20;;;;;;;12.05;8.05;;;;;;;;;;6276335;22;20011;-68
2023/01/06 13:10:52;;;;;;;12.60;8.05;;;;;;;;;;6275734;22;20004;-67
2023/01/06 13:13:18;;;;;;;10.93;7.80;;;;;;;;;;6276365;22;20006;-68
2023/01/06 13:15:45;;;;;;;18.48;9.50;;;;;;;;;;6276659;22;20352;-68
2023/01/06 13:18:14;;;;;;;13.88;8.20;;;;;;;;;;6276233;22;20004;-68
2023/01/06 13:20:43;;;;;;;13.45;9.30;;;;;;;;;;6276155;22;19996;-68
2023/01/06 13:23:21;;;;;;;12.48;8.73;;;;;;;;;;6248800;22;20102;-67
2023/01/06 13:25:56;;;;;;;11.43;7.95;;;;;;;;;;6276274;22;19999;-67
2023/01/06 13:28:34;;;;;;;14.57;9.90;;;;;;;;;;6275781;22;20443;-67
2023/01/06 13:31:00;;;;;;;12.95;9.70;;;;;;;;;;6275800;22;20070;-68
2023/01/06 13:33:29;;;;;;;14.57;9.32;;;;;;;;;;6276029;22;20003;-68
2023/01/06 13:35:56;;;;;;;16.77;9.40;;;;;;;;;;6275929;22;20083;-68
2023/01/06 13:38:40;;;;;;;15.85;8.57;;;;;;;;;;6276081;22;20011;-68
2023/01/06 13:41:12;;;;;;;12.02;8.93;;;;;;;;;;6276061;22;20007;-68
2023/01/06 13:43:39;;;;;;;15.15;8.57;;;;;;;;;;6276024;22;20065;-68
2023/01/06 13:46:08;;;;;;;12.25;8.73;;;;;;;;;;6275980;22;20075;-68
2023/01/06 13:48:39;;;;;;;13.02;9.13;;;;;;;;;;6276061;22;20006;-68
2023/01/06 13:51:07;;;;;;;13.25;9.00;;;;;;;;;;6275893;22;20075;-68
2023/01/06 13:53:44;;;;;;;13.55;8.60;;;;;;;;;;6275952;22;20007;-68
2023/01/06 13:56:13;;;;;;;16.23;8.75;;;;;;;;;;6275772;22;20031;-68
2023/01/06 13:58:40;;;;;;;14.57;8.82;;;;;;;;;;6275966;22;20430;-68
2023/01/06 14:01:33;;;;;;;14.40;8.35;;;;;;;;;;6276017;22;20000;-67
2023/01/06 14:04:25;;;;;;;13.90;9.30;;;;;;;;;;6270621;22;20094;-67
2023/01/06 14:06:51;;;;;;;13.75;8.90;;;;;;;;;;6229874;22;20004;-67
2023/01/06 14:09:18;;;;;;;16.63;9.30;;;;;;;;;;6275938;22;20079;-67
2023/01/06 14:11:44;;;;;;;14.75;9.52;;;;;;;;;;6276181;22;20050;-68
2023/01/06 14:14:23;;;;;;;16.48;9.18;;;;;;;;;;6275940;22;20004;-68
2023/01/06 14:16:52;;;;;;;19.55;8.90;;;;;;;;;;6275799;22;20034;-67
2023/01/06 14:19:38;;;;;;;15.55;9.10;;;;;;;;;;6276467;22;20006;-67
2023/01/06 14:22:17;;;;;;;14.48;8.60;;;;;;;;;;6275940;22;20007;-68
2023/01/06 14:24:48;;;;;;;15.07;8.57;;;;;;;;;;6277803;22;20031;-68
2023/01/06 14:27:14;;;;;;;13.68;9.43;;;;;;;;;;6277711;22;19995;-67
2023/01/06 14:29:43;;;;;;;13.13;9.48;;;;;;;;;;6277607;22;20019;-68
2023/01/06 14:32:18;;;;;;;15.25;10.15;;;;;;;;;;6277754;22;20070;-67
2023/01/06 14:34:50;;;;;;;15.52;9.65;;;;;;;;;;6277681;22;20010;-67
2023/01/06 14:37:18;;;;;;;14.80;9.60;;;;;;;;;;6277472;22;20085;-68